Time;durP1;ratioP1;P1;durP2;ratioP2;P2;SDS_P1;SDS_P2;PMS_P1;PMS_P2;Temp;Humidity;BMP_temperature;BMP_pressure;BME280_temperature;BME280_humidity;BME280_pressure;Samples;Min_cycle;Max_cycle;Signal;HPM_P1;HPM_P2
2023/08/21 00:02:02;;;;;;;;;33.00;29.50;;;;;26.28;57.83;101409.70;109952;1266;20153;-80
2023/08/21 00:04:28;;;;;;;;;32.00;29.00;;;;;26.27;57.95;101406.70;109961;1265;23103;-79
2023/08/21 00:06:54;;;;;;;;;34.00;30.00;;;;;26.26;58.10;101409.13;109969;1265;19850;-79
2023/08/21 00:09:20;;;;;;;;;32.00;30.00;;;;;26.26;58.27;101413.73;109971;1265;20394;-80
2023/08/21 00:11:46;;;;;;;;;32.00;29.00;;;;;26.24;58.47;101415.47;109948;1265;19912;-80
2023/08/21 00:14:12;;;;;;;;;33.50;31.00;;;;;26.25;58.38;101417.72;109937;1266;19440;-81
2023/08/21 00:16:38;;;;;;;;;34.00;30.00;;;;;26.22;58.51;101417.19;109976;1265;20125;-80
2023/08/21 00:19:04;;;;;;;;;30.50;28.00;;;;;26.22;58.55;101418.08;110006;1251;23535;-81
2023/08/21 00:21:30;;;;;;;;;;;;;;;26.21;58.78;101415.94;109968;1265;23000;-80
2023/08/21 00:23:56;;;;;;;;;38.00;30.00;;;;;26.19;58.73;101416.17;110019;1250;21545;-80
2023/08/21 00:26:23;;;;;;;;;32.00;29.50;;;;;26.19;58.66;101416.51;109997;1258;23019;-80
2023/08/21 00:28:49;;;;;;;;;30.50;28.00;;;;;26.19;58.95;101410.74;110000;1265;23215;-80
2023/08/21 00:31:15;;;;;;;;;30.00;29.00;;;;;26.17;58.86;101405.65;109976;1260;21262;-80
2023/08/21 00:33:41;;;;;;;;;32.00;27.50;;;;;26.18;58.83;101396.86;109984;1251;20041;-80
2023/08/21 00:36:07;;;;;;;;;29.00;26.33;;;;;26.16;58.90;101398.31;109980;1265;23669;-80
2023/08/21 00:38:33;;;;;;;;;31.00;29.00;;;;;26.15;58.87;101403.70;110007;1260;23006;-80
2023/08/21 00:40:59;;;;;;;;;33.00;30.00;;;;;26.14;58.75;101400.86;109993;1266;22587;-80
2023/08/21 00:43:25;;;;;;;;;37.00;29.50;;;;;26.12;59.03;101398.61;109947;1260;23649;-80
2023/08/21 00:45:51;;;;;;;;;31.50;28.00;;;;;26.10;58.95;101398.10;109976;1266;22229;-80
2023/08/21 00:48:17;;;;;;;;;29.00;28.00;;;;;26.09;59.18;101403.98;109980;1265;19002;-80
2023/08/21 00:50:43;;;;;;;;;28.00;27.00;;;;;26.10;59.00;101399.26;110024;1251;19461;-80
2023/08/21 00:53:09;;;;;;;;;32.00;28.00;;;;;26.07;59.05;101406.69;109991;1250;23357;-80
2023/08/21 00:55:35;;;;;;;;;28.00;26.00;;;;;26.06;59.12;101408.08;110032;1250;19921;-80
2023/08/21 00:58:01;;;;;;;;;32.00;29.00;;;;;26.05;59.17;101408.20;109976;1265;19316;-80
2023/08/21 01:00:27;;;;;;;;;30.00;26.00;;;;;26.05;59.17;101410.34;109969;1260;23656;-80
2023/08/21 01:02:53;;;;;;;;;32.00;28.00;;;;;26.05;59.10;101411.54;109951;1266;23093;-79
2023/08/21 01:05:19;;;;;;;;;29.00;29.00;;;;;26.03;59.25;101404.31;109954;1251;21958;-80
2023/08/21 01:07:45;;;;;;;;;30.00;27.50;;;;;26.04;59.26;101407.48;109953;1265;20179;-80
2023/08/21 01:10:11;;;;;;;;;32.00;28.00;;;;;26.05;59.43;101407.92;109979;1266;19368;-79
2023/08/21 01:12:37;;;;;;;;;27.50;26.00;;;;;26.04;59.39;101407.98;110050;1265;19354;-80
2023/08/21 01:15:03;;;;;;;;;28.00;27.00;;;;;25.92;59.94;101414.51;109990;1250;21420;-79
2023/08/21 01:17:29;;;;;;;;;33.50;27.50;;;;;25.93;59.83;101413.07;110034;1265;19229;-79
2023/08/21 01:19:55;;;;;;;;;27.00;27.00;;;;;25.90;60.03;101423.09;109967;1265;23582;-79
2023/08/21 01:22:21;;;;;;;;;27.00;25.00;;;;;25.97;59.60;101428.29;109986;1251;21800;-80
2023/08/21 01:24:47;;;;;;;;;31.00;28.00;;;;;25.98;59.88;101428.61;109958;1250;19948;-80
2023/08/21 01:27:14;;;;;;;;;29.67;27.33;;;;;26.00;59.86;101420.95;110017;1260;19446;-80
2023/08/21 01:29:40;;;;;;;;;30.33;27.00;;;;;25.97;59.83;101423.66;110028;1265;23103;-80
2023/08/21 01:32:06;;;;;;;;;28.50;26.50;;;;;25.96;59.72;101424.56;109971;1251;19977;-79
2023/08/21 01:34:33;;;;;;;;;29.50;27.00;;;;;25.98;59.73;101419.77;109979;1266;20976;-79
2023/08/21 01:36:59;;;;;;;;;31.00;27.00;;;;;25.99;59.78;101416.46;109977;1251;21551;-79
2023/08/21 01:39:25;;;;;;;;;27.33;25.00;;;;;25.99;59.68;101412.67;110010;1250;19982;-78
2023/08/21 01:41:51;;;;;;;;;28.00;26.00;;;;;25.98;59.54;101406.81;109966;1251;19420;-79
2023/08/21 01:44:17;;;;;;;;;31.00;27.00;;;;;25.98;59.56;101409.89;109978;1266;22568;-80
2023/08/21 01:46:43;;;;;;;;;27.00;23.00;;;;;25.97;59.60;101416.59;110023;1260;22137;-79
2023/08/21 01:49:09;;;;;;;;;28.67;24.00;;;;;25.95;59.64;101417.33;110026;1251;21000;-81
2023/08/21 01:51:35;;;;;;;;;27.50;24.50;;;;;25.95;59.58;101418.98;110009;1266;20116;-83
2023/08/21 01:54:01;;;;;;;;;27.00;23.00;;;;;25.91;59.59;101419.83;110035;1265;19014;-80
2023/08/21 01:56:27;;;;;;;;;26.00;24.00;;;;;25.92;59.59;101417.64;110050;1251;20776;-80
2023/08/21 01:58:53;;;;;;;;;28.50;26.50;;;;;25.93;59.48;101415.60;110016;1265;20157;-80
2023/08/21 02:01:19;;;;;;;;;27.50;26.50;;;;;25.92;59.57;101411.27;110010;1266;23150;-78
2023/08/21 02:03:45;;;;;;;;;27.00;26.00;;;;;25.90;59.59;101412.72;110001;1266;19611;-78
2023/08/21 02:06:11;;;;;;;;;26.00;25.00;;;;;25.88;59.58;101410.86;109998;1251;23614;-79
2023/08/21 02:08:37;;;;;;;;;26.00;23.00;;;;;25.88;59.29;101411.08;110076;1266;21031;-79
2023/08/21 02:11:03;;;;;;;;;28.00;26.00;;;;;25.87;59.45;101411.42;110023;1250;22205;-81
2023/08/21 02:13:29;;;;;;;;;28.50;25.00;;;;;25.86;59.40;101408.63;109975;1266;23041;-80
2023/08/21 02:15:55;;;;;;;;;22.67;22.00;;;;;25.84;59.28;101408.32;109988;1266;23195;-80
2023/08/21 02:18:21;;;;;;;;;23.50;23.00;;;;;25.84;59.36;101411.55;109968;1250;20870;-79
2023/08/21 02:20:47;;;;;;;;;27.00;25.00;;;;;25.82;59.51;101413.61;109946;1266;19870;-81
2023/08/21 02:23:13;;;;;;;;;26.00;22.00;;;;;25.81;59.48;101410.76;109947;1251;22198;-80
2023/08/21 02:25:39;;;;;;;;;27.00;26.00;;;;;25.78;59.46;101407.38;109951;1265;20667;-80
2023/08/21 02:28:06;;;;;;;;;23.00;23.00;;;;;25.78;59.43;101410.67;109976;1265;21487;-78
2023/08/21 02:30:32;;;;;;;;;31.00;26.00;;;;;25.76;59.38;101415.09;109974;1266;19511;-79
2023/08/21 02:32:58;;;;;;;;;27.00;25.00;;;;;25.76;59.38;101410.42;109951;1266;21625;-79
2023/08/21 02:35:24;;;;;;;;;23.00;22.50;;;;;25.75;59.30;101407.91;110009;1267;23100;-79
2023/08/21 02:37:50;;;;;;;;;26.00;25.00;;;;;25.75;59.37;101404.77;109996;1266;19277;-80
2023/08/21 02:40:16;;;;;;;;;26.50;24.00;;;;;25.75;59.17;101407.14;109988;1266;19474;-80
2023/08/21 02:42:42;;;;;;;;;24.00;21.00;;;;;25.74;59.18;101415.98;109935;1260;22555;-80
2023/08/21 02:45:08;;;;;;;;;26.00;24.00;;;;;25.73;59.36;101416.92;109974;1265;19437;-79
2023/08/21 02:47:34;;;;;;;;;27.50;23.00;;;;;25.73;59.25;101415.10;109989;1250;21307;-79
2023/08/21 02:50:00;;;;;;;;;25.00;23.00;;;;;25.73;59.07;101408.15;110010;1250;23032;-82
2023/08/21 02:52:26;;;;;;;;;27.50;22.50;;;;;25.72;59.09;101409.41;109984;1266;19223;-80
2023/08/21 02:54:52;;;;;;;;;25.00;22.00;;;;;25.71;59.34;101405.75;109983;1265;19521;-81
2023/08/21 02:57:18;;;;;;;;;25.00;23.00;;;;;25.70;59.21;101404.93;109968;1250;19903;-79
2023/08/21 02:59:44;;;;;;;;;28.00;23.00;;;;;25.69;59.11;101399.89;109937;1266;19722;-80
2023/08/21 03:02:10;;;;;;;;;21.00;21.00;;;;;25.69;58.98;101400.39;109946;1250;20735;-80
2023/08/21 03:04:36;;;;;;;;;27.00;26.00;;;;;25.68;58.92;101395.57;110027;1265;20159;-80
2023/08/21 03:07:03;;;;;;;;;23.00;20.50;;;;;25.64;58.95;101393.89;110003;1251;19958;-80
2023/08/21 03:09:29;;;;;;;;;27.00;22.00;;;;;25.65;58.58;101400.42;109977;1266;19493;-80
2023/08/21 03:11:55;;;;;;;;;22.00;21.00;;;;;25.64;58.59;101399.04;109983;1266;19982;-80
2023/08/21 03:14:21;;;;;;;;;28.00;21.50;;;;;25.61;58.62;101392.09;110014;1259;20025;-80
2023/08/21 03:16:47;;;;;;;;;22.50;20.50;;;;;25.60;58.41;101394.45;109970;1251;20826;-80
2023/08/21 03:19:13;;;;;;;;;22.50;20.00;;;;;25.59;58.20;101396.49;109934;1265;23793;-80
2023/08/21 03:21:39;;;;;;;;;23.00;21.00;;;;;25.56;58.03;101401.17;109963;1260;21699;-80
2023/08/21 03:24:05;;;;;;;;;22.50;21.50;;;;;25.57;58.04;101399.25;109944;1265;19230;-79
2023/08/21 03:26:31;;;;;;;;;19.00;17.00;;;;;25.54;57.84;101402.95;109956;1265;20236;-78
2023/08/21 03:28:57;;;;;;;;;21.00;19.00;;;;;25.51;57.56;101403.96;109980;1265;19232;-78
2023/08/21 03:31:23;;;;;;;;;22.33;21.00;;;;;25.50;57.48;101406.27;109998;1265;19467;-78
2023/08/21 03:33:49;;;;;;;;;;;;;;;25.50;57.35;101403.31;110005;1266;22012;-79
2023/08/21 03:36:15;;;;;;;;;18.00;18.00;;;;;25.47;57.08;101404.98;109967;1266;19735;-79
2023/08/21 03:38:41;;;;;;;;;25.00;21.00;;;;;25.47;57.02;101409.27;109999;1266;19086;-79
2023/08/21 03:41:07;;;;;;;;;24.50;20.50;;;;;25.45;56.91;101408.39;110020;1266;20121;-79
2023/08/21 03:43:33;;;;;;;;;29.50;21.00;;;;;25.43;56.99;101415.16;109978;1266;19821;-79
2023/08/21 03:45:59;;;;;;;;;24.00;22.00;;;;;25.41;56.93;101420.89;110024;1251;23081;-79
2023/08/21 03:48:25;;;;;;;;;20.50;18.00;;;;;25.39;57.03;101422.86;110003;1251;21509;-79
2023/08/21 03:50:51;;;;;;;;;24.33;20.33;;;;;25.38;56.73;101422.16;109971;1251;20009;-79
2023/08/21 03:53:17;;;;;;;;;24.50;21.50;;;;;25.36;56.73;101425.30;109975;1260;19584;-78
2023/08/21 03:55:43;;;;;;;;;23.00;20.00;;;;;25.33;56.75;101434.20;109980;1260;21325;-79
2023/08/21 03:58:09;;;;;;;;;21.00;19.00;;;;;25.32;56.69;101440.09;110037;1250;21338;-78
2023/08/21 04:00:35;;;;;;;;;21.00;20.00;;;;;25.31;56.60;101448.21;109979;1258;21581;-79
2023/08/21 04:03:01;;;;;;;;;21.50;21.00;;;;;25.31;56.45;101453.75;110011;1260;23730;-78
2023/08/21 04:05:27;;;;;;;;;21.00;20.50;;;;;25.32;56.53;101456.70;110005;1250;19379;-79
2023/08/21 04:07:53;;;;;;;;;20.00;17.00;;;;;25.29;56.35;101457.48;110002;1251;21639;-78
2023/08/21 04:10:19;;;;;;;;;19.00;16.00;;;;;25.26;56.51;101454.55;109999;1266;20175;-79
2023/08/21 04:12:45;;;;;;;;;20.00;19.00;;;;;25.25;56.54;101455.48;110001;1266;19185;-80
2023/08/21 04:15:11;;;;;;;;;19.00;17.00;;;;;25.26;56.23;101452.52;109956;1266;19564;-79
2023/08/21 04:17:37;;;;;;;;;18.00;16.50;;;;;25.28;56.24;101443.95;109939;1250;21598;-77
2023/08/21 04:20:03;;;;;;;;;19.00;17.00;;;;;25.27;56.25;101444.40;109956;1250;22427;-80
2023/08/21 04:22:29;;;;;;;;;21.00;19.00;;;;;25.24;56.19;101439.69;109956;1266;19189;-80
2023/08/21 04:24:56;;;;;;;;;21.50;20.50;;;;;25.19;56.20;101444.73;109962;1250;19971;-78
2023/08/21 04:27:22;;;;;;;;;19.00;19.00;;;;;25.18;55.83;101446.75;109983;1250;19312;-79
2023/08/21 04:29:48;;;;;;;;;18.00;16.50;;;;;25.18;55.83;101444.02;110010;1259;20997;-79
2023/08/21 04:32:14;;;;;;;;;22.50;20.50;;;;;25.14;55.89;101445.68;110019;1250;22536;-79
2023/08/21 04:34:40;;;;;;;;;19.00;17.00;;;;;25.14;55.76;101442.94;109993;1266;23511;-81
2023/08/21 04:37:06;;;;;;;;;24.00;21.00;;;;;25.16;55.59;101447.42;109992;1251;22144;-79
2023/08/21 04:39:32;;;;;;;;;23.00;19.00;;;;;25.14;55.56;101438.11;110035;1260;21605;-80
2023/08/21 04:41:58;;;;;;;;;19.50;16.50;;;;;25.15;55.62;101433.66;110040;1250;19222;-79
2023/08/21 04:44:24;;;;;;;;;25.00;20.00;;;;;25.14;55.55;101434.33;109960;1266;20966;-80
2023/08/21 04:46:50;;;;;;;;;19.00;16.50;;;;;25.13;55.18;101435.21;110036;1251;21577;-81
2023/08/21 04:49:16;;;;;;;;;19.00;18.00;;;;;25.13;55.36;101436.46;110029;1266;20227;-80
2023/08/21 04:51:42;;;;;;;;;16.50;16.00;;;;;25.12;55.13;101443.71;109982;1251;20792;-81
2023/08/21 04:54:08;;;;;;;;;21.00;19.00;;;;;25.15;54.97;101440.14;109975;1251;21336;-83
2023/08/21 04:56:34;;;;;;;;;17.00;16.00;;;;;25.14;54.94;101436.52;109943;1266;21928;-80
2023/08/21 04:59:00;;;;;;;;;20.00;19.00;;;;;25.15;54.92;101438.92;109917;1250;21099;-80
2023/08/21 05:01:26;;;;;;;;;20.50;19.00;;;;;25.16;54.68;101438.91;109961;1265;21179;-79
2023/08/21 05:03:54;;;;;;;;;19.50;17.00;;;;;25.16;54.87;101440.67;109942;1251;22462;-79
2023/08/21 05:06:20;;;;;;;;;21.00;19.00;;;;;25.16;54.78;101439.91;109963;1251;23493;-79
2023/08/21 05:08:46;;;;;;;;;20.00;17.00;;;;;25.18;54.69;101442.64;109952;1265;20320;-80
2023/08/21 05:11:12;;;;;;;;;21.00;19.00;;;;;25.22;54.43;101446.90;109996;1250;19293;-80
2023/08/21 05:13:38;;;;;;;;;22.00;20.00;;;;;25.24;54.29;101446.98;110000;1251;19420;-80
2023/08/21 05:16:04;;;;;;;;;20.00;18.00;;;;;25.24;54.22;101453.69;109958;1251;21620;-80
2023/08/21 05:18:30;;;;;;;;;19.00;17.00;;;;;25.19;54.45;101449.98;109987;1265;18981;-81
2023/08/21 05:20:56;;;;;;;;;17.00;15.50;;;;;25.23;54.28;101451.93;110034;1266;23583;-84
2023/08/21 05:23:22;;;;;;;;;15.00;13.00;;;;;25.36;54.22;101453.88;109972;1265;20315;-79
2023/08/21 05:25:48;;;;;;;;;15.00;14.00;;;;;25.45;53.88;101451.08;109959;1266;23486;-81
2023/08/21 05:28:14;;;;;;;;;17.00;14.00;;;;;25.45;53.73;101455.63;109981;1266;19618;-82
2023/08/21 05:30:40;;;;;;;;;16.00;14.00;;;;;25.35;54.06;101456.58;110500;1251;21560;-82
2023/08/21 05:33:06;;;;;;;;;14.00;12.67;;;;;25.38;53.81;101453.42;110004;1266;23609;-84
2023/08/21 05:35:32;;;;;;;;;16.00;15.00;;;;;25.48;53.30;101466.03;109968;1266;23061;-83
2023/08/21 05:37:58;;;;;;;;;19.00;17.00;;;;;25.48;53.65;101466.42;109978;1250;21446;-83
2023/08/21 05:40:24;;;;;;;;;14.67;14.00;;;;;25.58;52.96;101468.48;109974;1251;21433;-78
2023/08/21 05:42:50;;;;;;;;;14.00;14.00;;;;;25.44;52.81;101471.82;109949;1266;23992;-78
2023/08/21 05:45:16;;;;;;;;;12.67;12.00;;;;;25.48;53.01;101476.34;109953;1250;23021;-84
2023/08/21 05:47:42;;;;;;;;;11.50;11.00;;;;;25.53;53.06;101479.17;109950;1265;19213;-82
2023/08/21 05:50:09;;;;;;;;;13.00;13.00;;;;;25.47;52.58;101481.56;109968;1265;19431;-85
2023/08/21 05:52:35;;;;;;;;;14.00;12.00;;;;;25.46;52.05;101486.35;110007;1250;22476;-87
2023/08/21 05:55:01;;;;;;;;;12.00;11.50;;;;;25.44;51.93;101486.30;109999;1266;22831;-79
2023/08/21 05:57:27;;;;;;;;;10.50;10.50;;;;;25.41;51.89;101489.66;109944;1266;20950;-80
2023/08/21 05:59:53;;;;;;;;;11.00;11.00;;;;;25.50;51.67;101490.88;109958;1251;21601;-75
2023/08/21 06:02:19;;;;;;;;;136.00;99.67;;;;;25.52;51.58;101495.25;110000;1265;18842;-80
2023/08/21 06:04:45;;;;;;;;;334.00;246.00;;;;;25.56;51.59;101489.30;109987;1250;20792;-79
2023/08/21 06:07:11;;;;;;;;;170.00;133.50;;;;;25.72;51.13;101493.00;109934;1265;23539;-79
2023/08/21 06:09:37;;;;;;;;;152.00;117.00;;;;;25.71;50.69;101491.04;109990;1266;20945;-77
2023/08/21 06:12:03;;;;;;;;;94.50;72.00;;;;;25.76;50.79;101494.67;110010;1266;19872;-81
2023/08/21 06:14:29;;;;;;;;;77.00;56.50;;;;;25.81;50.80;101498.80;110043;1265;20460;-81
2023/08/21 06:16:55;;;;;;;;;52.00;41.00;;;;;25.79;50.35;101499.38;110055;1265;21224;-80
2023/08/21 06:19:21;;;;;;;;;36.00;30.00;;;;;25.83;50.31;101498.68;109994;1251;20997;-81
2023/08/21 06:21:47;;;;;;;;;24.50;22.50;;;;;25.86;50.05;101500.64;109957;1265;20148;-81
2023/08/21 06:24:13;;;;;;;;;21.00;18.00;;;;;25.89;49.98;101503.14;110019;1266;19219;-79
2023/08/21 06:26:39;;;;;;;;;24.00;22.50;;;;;25.84;50.26;101504.82;109969;1250;22126;-84
2023/08/21 06:29:05;;;;;;;;;16.50;16.00;;;;;25.89;50.39;101505.61;109994;1250;21500;-80
2023/08/21 06:31:31;;;;;;;;;13.00;12.00;;;;;25.93;50.55;101508.54;110035;1251;22460;-83
2023/08/21 06:33:57;;;;;;;;;15.50;13.00;;;;;25.96;50.15;101508.69;110029;1250;23777;-85
2023/08/21 06:36:23;;;;;;;;;8.50;8.00;;;;;26.01;50.16;101512.64;109997;1251;21555;-82
2023/08/21 06:38:49;;;;;;;;;11.00;9.33;;;;;26.08;49.93;101515.52;110006;1266;23391;-88
2023/08/21 06:41:15;;;;;;;;;9.00;9.00;;;;;26.13;48.92;101517.84;110014;1266;23711;-83
2023/08/21 06:43:41;;;;;;;;;11.00;10.00;;;;;26.16;48.96;101516.60;109995;1266;20149;-88
2023/08/21 06:46:07;;;;;;;;;8.00;7.00;;;;;26.22;49.14;101521.11;110006;1250;23055;-84
2023/08/21 06:48:33;;;;;;;;;6.50;6.50;;;;;26.14;48.42;101522.23;110011;1250;23100;-87
2023/08/21 06:51:00;;;;;;;;;6.50;6.00;;;;;26.17;48.34;101520.33;110016;1251;21413;-89
2023/08/21 06:53:26;;;;;;;;;7.00;7.00;;;;;26.27;48.23;101522.55;109984;1250;19249;-83
2023/08/21 06:55:52;;;;;;;;;10.00;8.00;;;;;26.31;48.02;101515.94;109990;1266;19408;-87
2023/08/21 06:58:18;;;;;;;;;7.00;7.00;;;;;26.28;48.01;101510.02;110026;1250;23231;-83
2023/08/21 07:00:44;;;;;;;;;9.00;8.00;;;;;26.32;48.34;101501.15;110005;1265;19178;-84
2023/08/21 07:03:10;;;;;;;;;7.00;7.00;;;;;26.32;47.92;101495.27;110015;1265;19497;-90
2023/08/21 07:05:36;;;;;;;;;9.00;8.00;;;;;26.30;48.56;101501.60;109990;1266;21672;-82
2023/08/21 07:08:03;;;;;;;;;11.50;8.50;;;;;26.43;48.31;101500.77;109979;1266;19293;-84
2023/08/21 07:10:29;;;;;;;;;7.00;7.00;;;;;26.47;48.33;101499.58;110015;1259;19416;-83
2023/08/21 07:12:55;;;;;;;;;9.00;7.00;;;;;26.57;48.47;101501.84;110020;1265;20246;-82
2023/08/21 07:15:22;;;;;;;;;7.00;7.00;;;;;26.59;48.38;101503.58;109914;1267;20676;-75
2023/08/21 07:17:47;;;;;;;;;6.00;6.00;;;;;26.65;48.51;101504.55;109954;1251;20366;-80
2023/08/21 07:20:13;;;;;;;;;6.00;6.00;;;;;26.71;48.96;101503.88;109964;1250;22498;-79
2023/08/21 07:22:40;;;;;;;;;8.50;8.00;;;;;26.77;49.22;101510.02;109950;1266;21968;-79
2023/08/21 07:25:06;;;;;;;;;6.00;6.00;;;;;26.79;49.10;101510.33;110024;1251;19457;-77
2023/08/21 07:27:32;;;;;;;;;6.00;4.00;;;;;26.87;49.16;101506.55;109977;1260;20203;-80
2023/08/21 07:29:58;;;;;;;;;6.00;6.00;;;;;26.90;49.49;101502.89;109942;1266;22232;-79
2023/08/21 07:32:24;;;;;;;;;9.67;8.67;;;;;26.84;48.08;101503.45;109669;1251;418516;-79
2023/08/21 07:34:50;;;;;;;;;7.00;6.00;;;;;26.70;46.53;101504.71;110019;1266;21748;-78
2023/08/21 07:37:16;;;;;;;;;8.00;7.00;;;;;26.78;46.90;101505.06;110035;1260;19628;-77
2023/08/21 07:39:42;;;;;;;;;6.00;6.00;;;;;26.87;47.12;101500.66;110054;1260;22059;-79
2023/08/21 07:42:08;;;;;;;;;6.00;6.00;;;;;26.90;48.05;101496.95;110031;1252;19789;-77
2023/08/21 07:44:34;;;;;;;;;4.00;4.00;;;;;26.93;48.26;101498.17;110021;1265;23560;-77
2023/08/21 07:47:00;;;;;;;;;6.00;6.00;;;;;26.96;48.12;101498.27;110098;1265;20698;-77
2023/08/21 07:49:26;;;;;;;;;6.00;6.00;;;;;27.00;48.40;101498.56;110050;1251;21435;-79
2023/08/21 07:51:52;;;;;;;;;6.00;6.00;;;;;27.01;48.74;101505.70;110003;1266;19134;-78
2023/08/21 07:54:18;;;;;;;;;6.00;6.00;;;;;27.02;48.64;101509.80;109996;1266;20732;-78
2023/08/21 07:56:44;;;;;;;;;4.00;4.00;;;;;27.05;48.64;101508.39;110043;1265;20191;-79
2023/08/21 07:59:10;;;;;;;;;4.67;4.00;;;;;27.04;48.54;101509.06;110049;1266;19314;-79
2023/08/21 08:01:36;;;;;;;;;6.00;4.67;;;;;27.06;48.62;101512.02;110076;1266;22165;-79
2023/08/21 08:04:02;;;;;;;;;4.00;4.00;;;;;27.08;48.83;101521.21;110084;1250;22629;-78
2023/08/21 08:06:28;;;;;;;;;4.00;3.00;;;;;27.08;48.89;101523.31;110113;1250;19883;-80
2023/08/21 08:08:54;;;;;;;;;4.00;3.00;;;;;27.07;48.95;101522.55;110090;1260;19497;-77
2023/08/21 08:11:20;;;;;;;;;3.00;3.00;;;;;27.11;49.05;101521.08;110015;1266;20289;-80
2023/08/21 08:13:46;;;;;;;;;3.00;3.00;;;;;27.12;49.09;101527.40;109987;1251;19767;-80
2023/08/21 08:16:13;;;;;;;;;3.50;3.00;;;;;27.13;49.09;101529.64;110007;1265;19386;-80
2023/08/21 08:18:39;;;;;;;;;3.50;3.00;;;;;27.13;48.94;101519.46;110028;1259;21558;-76
2023/08/21 08:21:05;;;;;;;;;5.00;4.00;;;;;27.10;48.84;101517.23;110024;1260;21010;-76
2023/08/21 08:23:31;;;;;;;;;4.00;3.50;;;;;27.14;48.42;101512.80;110006;1266;20757;-76
2023/08/21 08:25:57;;;;;;;;;3.50;3.00;;;;;27.14;47.93;101514.71;109997;1265;21632;-77
2023/08/21 08:28:23;;;;;;;;;3.00;3.00;;;;;27.14;47.36;101512.79;110009;1266;19202;-74
2023/08/21 08:30:49;;;;;;;;;4.00;4.00;;;;;27.16;47.29;101513.98;109999;1265;19332;-74
2023/08/21 08:33:15;;;;;;;;;4.00;4.00;;;;;27.17;46.97;101513.19;109976;1250;21645;-75
2023/08/21 08:35:41;;;;;;;;;3.00;3.00;;;;;27.16;47.00;101510.39;109991;1250;19484;-76
2023/08/21 08:38:07;;;;;;;;;4.00;4.00;;;;;27.16;46.95;101512.16;110005;1266;19575;-76
2023/08/21 08:40:33;;;;;;;;;3.00;3.00;;;;;27.13;47.00;101506.04;110007;1260;20261;-76
2023/08/21 08:43:00;;;;;;;;;4.00;3.00;;;;;27.14;47.00;101502.67;109978;1260;19255;-76
2023/08/21 08:45:26;;;;;;;;;3.00;3.00;;;;;27.16;46.99;101504.35;109966;1265;20687;-76
2023/08/21 08:47:52;;;;;;;;;2.00;2.00;;;;;27.16;47.10;101502.52;109942;1251;21642;-76
2023/08/21 08:50:18;;;;;;;;;3.00;3.00;;;;;27.12;47.07;101495.92;109971;1251;22981;-76
2023/08/21 08:52:44;;;;;;;;;3.00;3.00;;;;;27.14;46.95;101497.34;110009;1250;19342;-75
2023/08/21 08:55:11;;;;;;;;;2.50;2.50;;;;;27.17;46.93;101498.29;110032;1250;21526;-76
2023/08/21 08:57:37;;;;;;;;;6.00;6.00;;;;;27.16;45.50;101492.61;109983;1265;22978;-74
2023/08/21 09:00:04;;;;;;;;;3.00;3.00;;;;;27.16;45.18;101492.69;109999;1260;22628;-75
2023/08/21 09:02:30;;;;;;;;;4.00;4.00;;;;;27.20;45.64;101492.14;109942;1250;21494;-76
2023/08/21 09:04:56;;;;;;;;;3.00;3.00;;;;;27.21;45.72;101489.98;109955;1266;20642;-75
2023/08/21 09:07:22;;;;;;;;;3.00;3.00;;;;;27.24;45.67;101495.05;109969;1266;19451;-76
2023/08/21 09:09:49;;;;;;;;;3.50;3.50;;;;;27.24;45.72;101496.36;109999;1265;20168;-75
2023/08/21 09:12:15;;;;;;;;;3.50;3.50;;;;;27.25;45.64;101489.59;110016;1266;22150;-74
2023/08/21 09:14:41;;;;;;;;;3.00;3.00;;;;;27.26;45.55;101489.91;110024;1250;21071;-74
2023/08/21 09:17:07;;;;;;;;;4.00;4.00;;;;;27.26;45.38;101492.88;109974;1250;22872;-74
2023/08/21 09:19:33;;;;;;;;;3.50;3.50;;;;;27.26;45.31;101485.23;109979;1265;19226;-74
2023/08/21 09:21:59;;;;;;;;;6.00;4.00;;;;;27.27;44.41;101484.00;109991;1250;20902;-75
2023/08/21 09:24:25;;;;;;;;;4.00;4.00;;;;;27.31;43.72;101488.56;109944;1266;23266;-74
2023/08/21 09:26:52;;;;;;;;;4.00;4.00;;;;;27.29;43.23;101485.13;109972;1250;22936;-75
2023/08/21 09:29:18;;;;;;;;;4.00;4.00;;;;;27.38;42.39;101484.56;110039;1251;22036;-75
2023/08/21 09:31:45;;;;;;;;;6.00;5.00;;;;;27.57;40.39;101483.09;110002;1251;21443;-75
2023/08/21 09:34:11;;;;;;;;;4.00;3.50;;;;;27.42;41.77;101481.04;110025;1250;20862;-74
2023/08/21 09:36:37;;;;;;;;;4.00;4.00;;;;;27.37;42.27;101482.76;109993;1265;20646;-75
2023/08/21 09:39:06;;;;;;;;;3.00;3.00;;;;;27.35;42.84;101481.14;109987;1250;21541;-74
2023/08/21 09:41:32;;;;;;;;;3.00;3.00;;;;;27.33;43.20;101471.60;109995;1265;19618;-75
2023/08/21 09:43:58;;;;;;;;;4.00;3.67;;;;;27.31;43.61;101472.61;109965;1260;20549;-74
2023/08/21 09:46:24;;;;;;;;;2.00;2.00;;;;;27.31;43.86;101473.38;109974;1260;20105;-74
2023/08/21 09:48:50;;;;;;;;;3.00;2.00;;;;;27.29;43.95;101469.73;109977;1250;19667;-74
2023/08/21 09:51:16;;;;;;;;;3.50;3.00;;;;;27.27;44.13;101466.77;109980;1265;20901;-74
2023/08/21 09:53:42;;;;;;;;;3.00;3.00;;;;;27.27;44.26;101465.90;109996;1251;21711;-74
2023/08/21 09:56:08;;;;;;;;;2.00;2.00;;;;;27.26;44.54;101468.56;109962;1265;20396;-74
2023/08/21 09:58:34;;;;;;;;;3.00;3.00;;;;;27.25;44.57;101461.48;109977;1260;23419;-75
2023/08/21 10:01:00;;;;;;;;;2.00;2.00;;;;;27.25;44.83;101461.92;109992;1265;23019;-75
2023/08/21 10:03:26;;;;;;;;;2.50;2.50;;;;;27.24;44.82;101461.82;110027;1266;19176;-76
2023/08/21 10:05:52;;;;;;;;;3.00;3.00;;;;;27.22;44.92;101460.85;110029;1251;20832;-75
2023/08/21 10:08:18;;;;;;;;;3.00;3.00;;;;;27.24;45.16;101452.63;110029;1266;22329;-75
2023/08/21 10:10:44;;;;;;;;;2.00;2.00;;;;;27.26;45.12;101449.70;110053;1265;19143;-77
2023/08/21 10:13:11;;;;;;;;;3.00;3.00;;;;;27.26;45.18;101450.34;110005;1251;21870;-76
2023/08/21 10:15:37;;;;;;;;;2.00;2.00;;;;;27.25;45.39;101449.93;109991;1251;21567;-75
2023/08/21 10:18:03;;;;;;;;;2.00;2.00;;;;;27.27;45.04;101450.72;109984;1266;19192;-76
2023/08/21 10:20:29;;;;;;;;;2.00;2.00;;;;;27.28;45.22;101446.69;110003;1265;19352;-76
2023/08/21 10:22:55;;;;;;;;;3.00;3.00;;;;;27.24;45.24;101448.89;109994;1266;22504;-74
2023/08/21 10:25:22;;;;;;;;;2.00;2.00;;;;;27.22;45.35;101455.45;110016;1251;23500;-74
2023/08/21 10:27:48;;;;;;;;;2.00;2.00;;;;;27.20;45.32;101451.21;110054;1251;23418;-75
2023/08/21 10:30:14;;;;;;;;;2.00;2.00;;;;;27.22;45.56;101451.79;110020;1251;23387;-75
2023/08/21 10:32:40;;;;;;;;;2.00;2.00;;;;;27.20;45.48;101450.60;110022;1258;19451;-75
2023/08/21 10:35:06;;;;;;;;;3.00;3.00;;;;;27.26;44.77;101454.25;110007;1250;19342;-74
2023/08/21 10:37:32;;;;;;;;;2.00;2.00;;;;;27.28;44.68;101452.52;110014;1265;20287;-74
2023/08/21 10:39:58;;;;;;;;;2.00;2.00;;;;;27.31;45.05;101451.10;109960;1259;19924;-76
2023/08/21 10:42:25;;;;;;;;;3.00;3.00;;;;;27.28;45.49;101446.69;109943;1265;19371;-81
2023/08/21 10:44:51;;;;;;;;;3.00;3.00;;;;;27.26;45.48;101444.90;109950;1265;20117;-76
2023/08/21 10:47:17;;;;;;;;;2.00;2.00;;;;;27.21;45.69;101444.10;109962;1250;22992;-76
2023/08/21 10:49:43;;;;;;;;;2.00;2.00;;;;;27.22;45.69;101440.06;109960;1266;19680;-76
2023/08/21 10:52:09;;;;;;;;;2.00;2.00;;;;;27.18;45.97;101439.52;109969;1250;21253;-73
2023/08/21 10:54:35;;;;;;;;;3.33;3.00;;;;;27.12;46.39;101433.33;109960;1266;19514;-75
2023/08/21 10:57:02;;;;;;;;;3.00;3.00;;;;;27.12;45.92;101429.64;109938;1250;23166;-78
2023/08/21 10:59:28;;;;;;;;;3.00;3.00;;;;;27.10;45.90;101432.10;109958;1266;20100;-76
2023/08/21 11:01:54;;;;;;;;;3.00;2.00;;;;;27.05;46.23;101429.41;109970;1251;19588;-77